Stolt Spray — ZCSQ9 — position and weather

sailwx.info

Track history (hours):
 
Tides and Currents Weather Stations Pressure Air Temp Water Temp Dewpoint Dewpoint Depression Visibility Wind Speed Wind Dir Waves Ship Positions

Stolt Spray

Last reported at 2014-Sep-22 10:33 UTC. Time now 2014-Sep-23 08:16 UTC.
Position N 22°29' E 120°10'.

Length 163 m; draft 8.6 m.

Type: Ship (hazmat cat A). MMSI: 319591000.

Date/timePositionNaut miles runAvg speedWind from/ knotsBaromVisibWave heightAir tempDewpointWater temp
2014-Sep-22 10:33N 22°29' E 120°10'10 9.6
2014-Sep-22 09:33N 22°34' E 120°19'2 1.6
2014-Sep-22 08:28N 22°35' E 120°18'19 0.9
2014-Sep-21 12:15N 22°34' E 119°58'2 2.2
2014-Sep-21 11:33N 22°34' E 119°56'1 0.0
2014-Sep-20 03:32N 22°33' E 119°55'7 7.1
2014-Sep-20 02:33N 22°35' E 120°02'1 0.6
2014-Sep-20 01:33N 22°35' E 120°02'1 0.8
2014-Sep-20 00:33N 22°34' E 120°03'1 0.8
2014-Sep-19 23:33N 22°33' E 120°03'1 0.7
2014-Sep-19 22:33N 22°33' E 120°03'1 0.6
2014-Sep-19 21:33N 22°32' E 120°04'8 7.8
2014-Sep-19 20:33N 22°40' E 120°01'1212.0
2014-Sep-19 19:33N 22°50' E 119°54'  
Track history (hours):
 
Tides and Currents Weather Stations Pressure Air Temp Water Temp Dewpoint Dewpoint Depression Visibility Wind Speed Wind Dir Waves Ship Positions

Stolt Spray

Last reported at 2014-Sep-22 10:33 UTC. Time now 2014-Sep-23 08:16 UTC.
Position N 22°29' E 120°10'.

Length 163 m; draft 8.6 m.

Type: Ship (hazmat cat A). MMSI: 319591000.

Date/timePositionNaut miles runAvg speedWind from/ knotsBaromVisibWave heightAir tempDewpointWater temp
2014-Sep-22 10:33N 22°29' E 120°10'10 9.6
2014-Sep-22 09:33N 22°34' E 120°19'2 1.6
2014-Sep-22 08:28N 22°35' E 120°18'19 0.9
2014-Sep-21 12:15N 22°34' E 119°58'2 2.2
2014-Sep-21 11:33N 22°34' E 119°56'1 0.0
2014-Sep-20 03:32N 22°33' E 119°55'7 7.1
2014-Sep-20 02:33N 22°35' E 120°02'1 0.6
2014-Sep-20 01:33N 22°35' E 120°02'1 0.8
2014-Sep-20 00:33N 22°34' E 120°03'1 0.8
2014-Sep-19 23:33N 22°33' E 120°03'1 0.7
2014-Sep-19 22:33N 22°33' E 120°03'1 0.6
2014-Sep-19 21:33N 22°32' E 120°04'8 7.8
2014-Sep-19 20:33N 22°40' E 120°01'1212.0
2014-Sep-19 19:33N 22°50' E 119°54'  

Dump ship's entire track history